sensor_id;sensor_type;location;lat;lon;timestamp;P1;durP1;ratioP1;P2;durP2;ratioP2
64678;SDS011;51094;53.864;27.676;2022-11-27T00:01:16;4.25;;;4.15;;
64678;SDS011;51094;53.864;27.676;2022-11-27T00:03:44;3.90;;;3.90;;
64678;SDS011;51094;53.864;27.676;2022-11-27T00:06:12;3.78;;;3.78;;
64678;SDS011;51094;53.864;27.676;2022-11-27T00:08:41;3.80;;;3.80;;
64678;SDS011;51094;53.864;27.676;2022-11-27T00:11:10;3.53;;;3.53;;
64678;SDS011;51094;53.864;27.676;2022-11-27T00:13:38;3.67;;;3.67;;
64678;SDS011;51094;53.864;27.676;2022-11-27T00:16:05;3.90;;;3.80;;
64678;SDS011;51094;53.864;27.676;2022-11-27T00:18:33;3.78;;;3.78;;
64678;SDS011;51094;53.864;27.676;2022-11-27T00:21:04;3.70;;;3.70;;
64678;SDS011;51094;53.864;27.676;2022-11-27T00:23:33;3.90;;;3.90;;
64678;SDS011;51094;53.864;27.676;2022-11-27T00:26:00;4.20;;;4.20;;
64678;SDS011;51094;53.864;27.676;2022-11-27T00:28:27;3.97;;;3.97;;
64678;SDS011;51094;53.864;27.676;2022-11-27T00:31:01;3.97;;;3.97;;
64678;SDS011;51094;53.864;27.676;2022-11-27T00:33:29;4.10;;;4.10;;
64678;SDS011;51094;53.864;27.676;2022-11-27T00:36:00;3.80;;;3.80;;
64678;SDS011;51094;53.864;27.676;2022-11-27T00:38:30;4.05;;;4.05;;
64678;SDS011;51094;53.864;27.676;2022-11-27T00:41:13;3.92;;;3.92;;
64678;SDS011;51094;53.864;27.676;2022-11-27T00:43:45;3.75;;;3.75;;
64678;SDS011;51094;53.864;27.676;2022-11-27T00:46:12;3.63;;;3.63;;
64678;SDS011;51094;53.864;27.676;2022-11-27T00:48:40;3.60;;;3.60;;
64678;SDS011;51094;53.864;27.676;2022-11-27T00:51:08;3.55;;;3.55;;
64678;SDS011;51094;53.864;27.676;2022-11-27T00:53:36;3.80;;;3.80;;
64678;SDS011;51094;53.864;27.676;2022-11-27T00:56:02;3.08;;;3.08;;
64678;SDS011;51094;53.864;27.676;2022-11-27T00:58:30;3.40;;;3.40;;
64678;SDS011;51094;53.864;27.676;2022-11-27T01:00:57;3.30;;;3.30;;
64678;SDS011;51094;53.864;27.676;2022-11-27T01:03:29;3.00;;;3.00;;
64678;SDS011;51094;53.864;27.676;2022-11-27T01:06:00;2.97;;;2.97;;
64678;SDS011;51094;53.864;27.676;2022-11-27T01:08:31;2.90;;;2.90;;
64678;SDS011;51094;53.864;27.676;2022-11-27T01:10:59;2.80;;;2.80;;
64678;SDS011;51094;53.864;27.676;2022-11-27T01:13:27;2.70;;;2.70;;
64678;SDS011;51094;53.864;27.676;2022-11-27T01:15:59;3.00;;;3.00;;
64678;SDS011;51094;53.864;27.676;2022-11-27T01:18:27;2.80;;;2.80;;
64678;SDS011;51094;53.864;27.676;2022-11-27T01:20:53;2.80;;;2.80;;
64678;SDS011;51094;53.864;27.676;2022-11-27T01:23:21;2.90;;;2.90;;
64678;SDS011;51094;53.864;27.676;2022-11-27T01:25:48;2.92;;;2.92;;
64678;SDS011;51094;53.864;27.676;2022-11-27T01:28:15;3.03;;;3.03;;
64678;SDS011;51094;53.864;27.676;2022-11-27T01:30:42;3.10;;;3.10;;
64678;SDS011;51094;53.864;27.676;2022-11-27T01:33:09;3.15;;;3.15;;
64678;SDS011;51094;53.864;27.676;2022-11-27T01:35:36;3.65;;;3.65;;
64678;SDS011;51094;53.864;27.676;2022-11-27T01:38:03;3.78;;;3.78;;
64678;SDS011;51094;53.864;27.676;2022-11-27T01:40:29;4.35;;;4.25;;
64678;SDS011;51094;53.864;27.676;2022-11-27T01:42:56;3.92;;;3.92;;
64678;SDS011;51094;53.864;27.676;2022-11-27T01:45:23;3.80;;;3.80;;
64678;SDS011;51094;53.864;27.676;2022-11-27T01:47:57;3.92;;;3.83;;
64678;SDS011;51094;53.864;27.676;2022-11-27T01:50:30;3.72;;;3.72;;
64678;SDS011;51094;53.864;27.676;2022-11-27T01:53:02;4.15;;;4.05;;
64678;SDS011;51094;53.864;27.676;2022-11-27T01:55:35;3.65;;;3.65;;
64678;SDS011;51094;53.864;27.676;2022-11-27T01:58:10;3.85;;;3.85;;
64678;SDS011;51094;53.864;27.676;2022-11-27T02:00:39;3.95;;;3.95;;
64678;SDS011;51094;53.864;27.676;2022-11-27T02:03:06;3.47;;;3.47;;
64678;SDS011;51094;53.864;27.676;2022-11-27T02:05:33;3.60;;;3.60;;
64678;SDS011;51094;53.864;27.676;2022-11-27T02:08:02;3.85;;;3.85;;
64678;SDS011;51094;53.864;27.676;2022-11-27T02:13:43;3.03;;;3.03;;
64678;SDS011;51094;53.864;27.676;2022-11-27T02:16:17;2.92;;;2.92;;
64678;SDS011;51094;53.864;27.676;2022-11-27T02:24:41;2.60;;;2.60;;
64678;SDS011;51094;53.864;27.676;2022-11-27T02:29:59;2.53;;;2.53;;
64678;SDS011;51094;53.864;27.676;2022-11-27T02:35:49;2.70;;;2.70;;
64678;SDS011;51094;53.864;27.676;2022-11-27T02:38:20;2.67;;;2.67;;
64678;SDS011;51094;53.864;27.676;2022-11-27T02:41:27;2.85;;;2.85;;
64678;SDS011;51094;53.864;27.676;2022-11-27T02:43:50;2.70;;;2.70;;
64678;SDS011;51094;53.864;27.676;2022-11-27T02:46:18;2.95;;;2.95;;
64678;SDS011;51094;53.864;27.676;2022-11-27T02:48:56;2.97;;;2.97;;
64678;SDS011;51094;53.864;27.676;2022-11-27T02:51:38;2.75;;;2.75;;
64678;SDS011;51094;53.864;27.676;2022-11-27T02:54:11;2.90;;;2.90;;
64678;SDS011;51094;53.864;27.676;2022-11-27T02:56:42;2.92;;;2.92;;
64678;SDS011;51094;53.864;27.676;2022-11-27T03:01:42;2.80;;;2.80;;
64678;SDS011;51094;53.864;27.676;2022-11-27T03:04:15;2.78;;;2.78;;
64678;SDS011;51094;53.864;27.676;2022-11-27T03:06:53;2.65;;;2.65;;
64678;SDS011;51094;53.864;27.676;2022-11-27T03:09:37;2.75;;;2.75;;
64678;SDS011;51094;53.864;27.676;2022-11-27T03:12:07;2.90;;;2.90;;
64678;SDS011;51094;53.864;27.676;2022-11-27T03:14:36;2.80;;;2.80;;
64678;SDS011;51094;53.864;27.676;2022-11-27T03:19:56;2.80;;;2.80;;
64678;SDS011;51094;53.864;27.676;2022-11-27T03:22:33;2.58;;;2.58;;
64678;SDS011;51094;53.864;27.676;2022-11-27T03:25:00;2.70;;;2.70;;
64678;SDS011;51094;53.864;27.676;2022-11-27T03:27:28;2.55;;;2.55;;
64678;SDS011;51094;53.864;27.676;2022-11-27T03:30:10;2.50;;;2.50;;
64678;SDS011;51094;53.864;27.676;2022-11-27T03:32:38;2.80;;;2.80;;
64678;SDS011;51094;53.864;27.676;2022-11-27T03:35:05;2.33;;;2.33;;
64678;SDS011;51094;53.864;27.676;2022-11-27T03:37:35;2.63;;;2.63;;
64678;SDS011;51094;53.864;27.676;2022-11-27T03:40:03;2.75;;;2.75;;
64678;SDS011;51094;53.864;27.676;2022-11-27T03:45:19;2.50;;;2.50;;
64678;SDS011;51094;53.864;27.676;2022-11-27T03:48:01;2.35;;;2.35;;
64678;SDS011;51094;53.864;27.676;2022-11-27T03:56:00;2.75;;;2.75;;
64678;SDS011;51094;53.864;27.676;2022-11-27T04:01:55;2.70;;;2.70;;
64678;SDS011;51094;53.864;27.676;2022-11-27T04:04:21;3.03;;;3.03;;
64678;SDS011;51094;53.864;27.676;2022-11-27T04:06:48;2.83;;;2.83;;
64678;SDS011;51094;53.864;27.676;2022-11-27T04:09:15;2.97;;;2.97;;
64678;SDS011;51094;53.864;27.676;2022-11-27T04:11:41;2.88;;;2.88;;
64678;SDS011;51094;53.864;27.676;2022-11-27T04:14:08;2.80;;;2.80;;
64678;SDS011;51094;53.864;27.676;2022-11-27T04:16:35;2.80;;;2.80;;
64678;SDS011;51094;53.864;27.676;2022-11-27T04:19:02;2.88;;;2.88;;
64678;SDS011;51094;53.864;27.676;2022-11-27T04:21:28;3.03;;;3.03;;
64678;SDS011;51094;53.864;27.676;2022-11-27T04:23:55;2.60;;;2.60;;
64678;SDS011;51094;53.864;27.676;2022-11-27T04:26:21;2.72;;;2.72;;
64678;SDS011;51094;53.864;27.676;2022-11-27T04:28:49;2.83;;;2.83;;
64678;SDS011;51094;53.864;27.676;2022-11-27T04:31:16;3.00;;;3.00;;
64678;SDS011;51094;53.864;27.676;2022-11-27T04:33:43;2.58;;;2.58;;
64678;SDS011;51094;53.864;27.676;2022-11-27T04:36:10;2.70;;;2.70;;
64678;SDS011;51094;53.864;27.676;2022-11-27T04:38:36;2.90;;;2.90;;
64678;SDS011;51094;53.864;27.676;2022-11-27T04:41:03;2.83;;;2.83;;
64678;SDS011;51094;53.864;27.676;2022-11-27T04:43:30;2.50;;;2.50;;
64678;SDS011;51094;53.864;27.676;2022-11-27T04:45:56;2.72;;;2.72;;
64678;SDS011;51094;53.864;27.676;2022-11-27T04:48:23;2.90;;;2.90;;
64678;SDS011;51094;53.864;27.676;2022-11-27T04:50:50;2.67;;;2.67;;
64678;SDS011;51094;53.864;27.676;2022-11-27T04:53:19;2.88;;;2.88;;
64678;SDS011;51094;53.864;27.676;2022-11-27T04:55:46;2.80;;;2.80;;
64678;SDS011;51094;53.864;27.676;2022-11-27T04:58:12;2.60;;;2.60;;
64678;SDS011;51094;53.864;27.676;2022-11-27T05:00:39;2.60;;;2.60;;
64678;SDS011;51094;53.864;27.676;2022-11-27T05:03:06;2.60;;;2.60;;
64678;SDS011;51094;53.864;27.676;2022-11-27T05:05:33;2.60;;;2.60;;
64678;SDS011;51094;53.864;27.676;2022-11-27T05:08:00;2.50;;;2.50;;
64678;SDS011;51094;53.864;27.676;2022-11-27T05:10:27;2.53;;;2.53;;
64678;SDS011;51094;53.864;27.676;2022-11-27T05:12:53;2.45;;;2.45;;
64678;SDS011;51094;53.864;27.676;2022-11-27T05:15:20;2.50;;;2.50;;
64678;SDS011;51094;53.864;27.676;2022-11-27T05:17:47;2.38;;;2.38;;
64678;SDS011;51094;53.864;27.676;2022-11-27T05:20:13;2.40;;;2.40;;
64678;SDS011;51094;53.864;27.676;2022-11-27T05:22:40;2.60;;;2.60;;
64678;SDS011;51094;53.864;27.676;2022-11-27T05:25:07;2.65;;;2.65;;
64678;SDS011;51094;53.864;27.676;2022-11-27T05:27:34;2.22;;;2.22;;
64678;SDS011;51094;53.864;27.676;2022-11-27T05:30:00;2.40;;;2.40;;
64678;SDS011;51094;53.864;27.676;2022-11-27T05:32:27;2.45;;;2.45;;
64678;SDS011;51094;53.864;27.676;2022-11-27T05:34:54;2.30;;;2.30;;
64678;SDS011;51094;53.864;27.676;2022-11-27T05:37:20;2.35;;;2.35;;
64678;SDS011;51094;53.864;27.676;2022-11-27T05:39:47;2.47;;;2.47;;
64678;SDS011;51094;53.864;27.676;2022-11-27T05:42:14;2.30;;;2.30;;
64678;SDS011;51094;53.864;27.676;2022-11-27T05:44:40;2.03;;;2.03;;
64678;SDS011;51094;53.864;27.676;2022-11-27T05:47:07;2.20;;;2.20;;
64678;SDS011;51094;53.864;27.676;2022-11-27T05:49:34;2.60;;;2.60;;
64678;SDS011;51094;53.864;27.676;2022-11-27T05:52:02;2.60;;;2.60;;
64678;SDS011;51094;53.864;27.676;2022-11-27T05:54:28;2.20;;;2.20;;
64678;SDS011;51094;53.864;27.676;2022-11-27T05:56:55;2.20;;;2.20;;
64678;SDS011;51094;53.864;27.676;2022-11-27T05:59:22;2.35;;;2.35;;
64678;SDS011;51094;53.864;27.676;2022-11-27T06:01:48;2.40;;;2.40;;
64678;SDS011;51094;53.864;27.676;2022-11-27T06:04:15;2.50;;;2.50;;
64678;SDS011;51094;53.864;27.676;2022-11-27T06:06:42;2.35;;;2.35;;
64678;SDS011;51094;53.864;27.676;2022-11-27T06:09:09;2.22;;;2.22;;
64678;SDS011;51094;53.864;27.676;2022-11-27T06:11:39;2.20;;;2.20;;
64678;SDS011;51094;53.864;27.676;2022-11-27T06:14:09;2.53;;;2.53;;
64678;SDS011;51094;53.864;27.676;2022-11-27T06:19:03;2.17;;;2.17;;
64678;SDS011;51094;53.864;27.676;2022-11-27T06:21:30;2.20;;;2.20;;
64678;SDS011;51094;53.864;27.676;2022-11-27T06:23:56;2.13;;;2.13;;
64678;SDS011;51094;53.864;27.676;2022-11-27T06:26:24;1.90;;;1.90;;
64678;SDS011;51094;53.864;27.676;2022-11-27T06:28:53;1.95;;;1.95;;
64678;SDS011;51094;53.864;27.676;2022-11-27T06:31:23;2.22;;;2.22;;
64678;SDS011;51094;53.864;27.676;2022-11-27T06:33:52;1.95;;;1.95;;
64678;SDS011;51094;53.864;27.676;2022-11-27T06:36:23;2.00;;;2.00;;
64678;SDS011;51094;53.864;27.676;2022-11-27T06:38:53;1.95;;;1.95;;
64678;SDS011;51094;53.864;27.676;2022-11-27T06:41:20;2.08;;;2.08;;
64678;SDS011;51094;53.864;27.676;2022-11-27T06:43:49;2.30;;;2.30;;
64678;SDS011;51094;53.864;27.676;2022-11-27T06:46:17;2.28;;;2.28;;
64678;SDS011;51094;53.864;27.676;2022-11-27T06:48:46;2.17;;;2.17;;
64678;SDS011;51094;53.864;27.676;2022-11-27T06:51:15;1.98;;;1.98;;
64678;SDS011;51094;53.864;27.676;2022-11-27T06:54:00;2.22;;;2.22;;
64678;SDS011;51094;53.864;27.676;2022-11-27T06:56:28;2.40;;;2.40;;
64678;SDS011;51094;53.864;27.676;2022-11-27T06:58:57;2.22;;;2.22;;
64678;SDS011;51094;53.864;27.676;2022-11-27T07:01:26;2.20;;;2.20;;
64678;SDS011;51094;53.864;27.676;2022-11-27T07:03:54;2.00;;;2.00;;
64678;SDS011;51094;53.864;27.676;2022-11-27T07:06:22;2.40;;;2.40;;
64678;SDS011;51094;53.864;27.676;2022-11-27T07:08:50;2.30;;;2.30;;
64678;SDS011;51094;53.864;27.676;2022-11-27T07:11:21;2.40;;;2.40;;
64678;SDS011;51094;53.864;27.676;2022-11-27T07:13:50;2.20;;;2.20;;
64678;SDS011;51094;53.864;27.676;2022-11-27T07:16:17;2.38;;;2.38;;
64678;SDS011;51094;53.864;27.676;2022-11-27T07:18:54;2.88;;;2.88;;
64678;SDS011;51094;53.864;27.676;2022-11-27T07:21:23;2.63;;;2.63;;
64678;SDS011;51094;53.864;27.676;2022-11-27T07:23:50;2.53;;;2.53;;
64678;SDS011;51094;53.864;27.676;2022-11-27T07:26:18;2.78;;;2.78;;
64678;SDS011;51094;53.864;27.676;2022-11-27T07:28:47;2.70;;;2.70;;
64678;SDS011;51094;53.864;27.676;2022-11-27T07:31:20;2.45;;;2.45;;
64678;SDS011;51094;53.864;27.676;2022-11-27T07:33:52;2.83;;;2.83;;
64678;SDS011;51094;53.864;27.676;2022-11-27T07:36:23;2.90;;;2.90;;
64678;SDS011;51094;53.864;27.676;2022-11-27T07:38:52;2.92;;;2.92;;
64678;SDS011;51094;53.864;27.676;2022-11-27T07:41:20;2.90;;;2.90;;
64678;SDS011;51094;53.864;27.676;2022-11-27T07:43:47;2.80;;;2.80;;
64678;SDS011;51094;53.864;27.676;2022-11-27T07:46:18;2.90;;;2.90;;
64678;SDS011;51094;53.864;27.676;2022-11-27T07:48:47;3.30;;;3.30;;
64678;SDS011;51094;53.864;27.676;2022-11-27T07:51:15;3.13;;;3.13;;
64678;SDS011;51094;53.864;27.676;2022-11-27T07:53:44;3.08;;;3.08;;
64678;SDS011;51094;53.864;27.676;2022-11-27T07:56:12;2.92;;;2.92;;
64678;SDS011;51094;53.864;27.676;2022-11-27T07:58:40;3.10;;;3.10;;
64678;SDS011;51094;53.864;27.676;2022-11-27T08:01:07;2.83;;;2.83;;
64678;SDS011;51094;53.864;27.676;2022-11-27T08:03:35;2.80;;;2.80;;
64678;SDS011;51094;53.864;27.676;2022-11-27T08:06:03;3.15;;;3.15;;
64678;SDS011;51094;53.864;27.676;2022-11-27T08:08:31;3.03;;;3.03;;
64678;SDS011;51094;53.864;27.676;2022-11-27T08:10:58;3.08;;;3.08;;
64678;SDS011;51094;53.864;27.676;2022-11-27T08:13:25;3.05;;;3.05;;
64678;SDS011;51094;53.864;27.676;2022-11-27T08:15:51;3.17;;;3.17;;
64678;SDS011;51094;53.864;27.676;2022-11-27T08:18:18;3.00;;;3.00;;
64678;SDS011;51094;53.864;27.676;2022-11-27T08:20:45;3.17;;;3.17;;
64678;SDS011;51094;53.864;27.676;2022-11-27T08:23:11;3.17;;;3.17;;
64678;SDS011;51094;53.864;27.676;2022-11-27T08:25:38;3.03;;;3.03;;
64678;SDS011;51094;53.864;27.676;2022-11-27T08:28:05;2.97;;;2.97;;
64678;SDS011;51094;53.864;27.676;2022-11-27T08:30:31;3.03;;;3.03;;
64678;SDS011;51094;53.864;27.676;2022-11-27T08:32:58;3.33;;;3.33;;
64678;SDS011;51094;53.864;27.676;2022-11-27T08:35:25;2.83;;;2.83;;
64678;SDS011;51094;53.864;27.676;2022-11-27T08:37:53;3.15;;;3.15;;
64678;SDS011;51094;53.864;27.676;2022-11-27T08:40:19;3.00;;;3.00;;
64678;SDS011;51094;53.864;27.676;2022-11-27T08:42:46;2.97;;;2.97;;
64678;SDS011;51094;53.864;27.676;2022-11-27T08:45:13;3.50;;;3.50;;
64678;SDS011;51094;53.864;27.676;2022-11-27T08:47:40;3.10;;;3.10;;
64678;SDS011;51094;53.864;27.676;2022-11-27T08:50:09;2.95;;;2.95;;
64678;SDS011;51094;53.864;27.676;2022-11-27T08:52:35;3.30;;;3.30;;
64678;SDS011;51094;53.864;27.676;2022-11-27T08:55:02;3.05;;;3.05;;
64678;SDS011;51094;53.864;27.676;2022-11-27T08:57:30;3.22;;;3.22;;
64678;SDS011;51094;53.864;27.676;2022-11-27T08:59:56;3.13;;;3.13;;
64678;SDS011;51094;53.864;27.676;2022-11-27T09:02:23;3.28;;;3.28;;
64678;SDS011;51094;53.864;27.676;2022-11-27T09:04:50;3.47;;;3.47;;
64678;SDS011;51094;53.864;27.676;2022-11-27T09:07:16;3.50;;;3.50;;
64678;SDS011;51094;53.864;27.676;2022-11-27T09:09:43;3.50;;;3.50;;
64678;SDS011;51094;53.864;27.676;2022-11-27T09:12:10;3.38;;;3.38;;
64678;SDS011;51094;53.864;27.676;2022-11-27T09:14:37;3.20;;;3.20;;
64678;SDS011;51094;53.864;27.676;2022-11-27T09:17:05;3.53;;;3.53;;
64678;SDS011;51094;53.864;27.676;2022-11-27T09:19:32;3.50;;;3.50;;
64678;SDS011;51094;53.864;27.676;2022-11-27T09:21:59;3.80;;;3.80;;
64678;SDS011;51094;53.864;27.676;2022-11-27T09:24:25;3.90;;;3.80;;
64678;SDS011;51094;53.864;27.676;2022-11-27T09:26:52;4.28;;;4.20;;
64678;SDS011;51094;53.864;27.676;2022-11-27T09:29:20;3.30;;;3.30;;
64678;SDS011;51094;53.864;27.676;2022-11-27T09:31:46;3.42;;;3.42;;
64678;SDS011;51094;53.864;27.676;2022-11-27T09:34:13;3.60;;;3.60;;
64678;SDS011;51094;53.864;27.676;2022-11-27T09:36:40;3.38;;;3.38;;
64678;SDS011;51094;53.864;27.676;2022-11-27T09:39:07;3.60;;;3.60;;
64678;SDS011;51094;53.864;27.676;2022-11-27T09:41:37;3.33;;;3.33;;
64678;SDS011;51094;53.864;27.676;2022-11-27T09:47:26;3.72;;;3.72;;
64678;SDS011;51094;53.864;27.676;2022-11-27T09:49:55;3.75;;;3.65;;
64678;SDS011;51094;53.864;27.676;2022-11-27T09:52:28;3.80;;;3.80;;
64678;SDS011;51094;53.864;27.676;2022-11-27T09:55:22;3.58;;;3.58;;
64678;SDS011;51094;53.864;27.676;2022-11-27T09:57:57;3.80;;;3.75;;
64678;SDS011;51094;53.864;27.676;2022-11-27T10:00:31;3.72;;;3.72;;
64678;SDS011;51094;53.864;27.676;2022-11-27T10:02:58;3.80;;;3.80;;
64678;SDS011;51094;53.864;27.676;2022-11-27T10:05:27;3.75;;;3.75;;
64678;SDS011;51094;53.864;27.676;2022-11-27T10:11:02;3.92;;;3.92;;
64678;SDS011;51094;53.864;27.676;2022-11-27T10:13:46;3.80;;;3.80;;
64678;SDS011;51094;53.864;27.676;2022-11-27T10:16:50;3.85;;;3.85;;
64678;SDS011;51094;53.864;27.676;2022-11-27T10:22:22;3.88;;;3.88;;
64678;SDS011;51094;53.864;27.676;2022-11-27T10:30:32;4.50;;;4.40;;
64678;SDS011;51094;53.864;27.676;2022-11-27T10:33:06;5.38;;;5.28;;
64678;SDS011;51094;53.864;27.676;2022-11-27T10:35:42;4.65;;;4.55;;
64678;SDS011;51094;53.864;27.676;2022-11-27T10:38:15;4.88;;;4.78;;
64678;SDS011;51094;53.864;27.676;2022-11-27T10:43:24;4.70;;;4.60;;
64678;SDS011;51094;53.864;27.676;2022-11-27T10:48:30;4.63;;;4.53;;
64678;SDS011;51094;53.864;27.676;2022-11-27T10:50:58;4.80;;;4.70;;
64678;SDS011;51094;53.864;27.676;2022-11-27T10:53:33;4.80;;;4.70;;
64678;SDS011;51094;53.864;27.676;2022-11-27T10:59:02;4.43;;;4.32;;
64678;SDS011;51094;53.864;27.676;2022-11-27T11:01:45;4.88;;;4.78;;
64678;SDS011;51094;53.864;27.676;2022-11-27T11:04:14;4.70;;;4.60;;
64678;SDS011;51094;53.864;27.676;2022-11-27T11:07:03;4.63;;;4.53;;
64678;SDS011;51094;53.864;27.676;2022-11-27T11:09:52;4.38;;;4.28;;
64678;SDS011;51094;53.864;27.676;2022-11-27T11:12:20;4.68;;;4.57;;
64678;SDS011;51094;53.864;27.676;2022-11-27T11:14:49;4.78;;;4.68;;
64678;SDS011;51094;53.864;27.676;2022-11-27T11:17:31;4.60;;;4.50;;
64678;SDS011;51094;53.864;27.676;2022-11-27T11:22:59;4.65;;;4.55;;
64678;SDS011;51094;53.864;27.676;2022-11-27T11:25:26;4.32;;;4.30;;
64678;SDS011;51094;53.864;27.676;2022-11-27T11:27:52;4.30;;;4.30;;
64678;SDS011;51094;53.864;27.676;2022-11-27T11:30:20;4.25;;;4.15;;
64678;SDS011;51094;53.864;27.676;2022-11-27T11:32:49;4.32;;;4.28;;
64678;SDS011;51094;53.864;27.676;2022-11-27T11:35:27;4.20;;;4.10;;
64678;SDS011;51094;53.864;27.676;2022-11-27T11:38:00;4.68;;;4.57;;
64678;SDS011;51094;53.864;27.676;2022-11-27T11:40:31;4.53;;;4.43;;
64678;SDS011;51094;53.864;27.676;2022-11-27T11:43:04;4.43;;;4.32;;
64678;SDS011;51094;53.864;27.676;2022-11-27T11:45:43;4.40;;;4.38;;
64678;SDS011;51094;53.864;27.676;2022-11-27T11:48:30;4.32;;;4.22;;
64678;SDS011;51094;53.864;27.676;2022-11-27T11:50:58;4.50;;;4.40;;
64678;SDS011;51094;53.864;27.676;2022-11-27T11:56:05;4.75;;;4.65;;
64678;SDS011;51094;53.864;27.676;2022-11-27T12:07:14;4.45;;;4.35;;
64678;SDS011;51094;53.864;27.676;2022-11-27T12:16:13;4.53;;;4.43;;
64678;SDS011;51094;53.864;27.676;2022-11-27T12:25:02;4.30;;;4.30;;
64678;SDS011;51094;53.864;27.676;2022-11-27T12:30:16;4.20;;;4.20;;
64678;SDS011;51094;53.864;27.676;2022-11-27T12:35:51;4.70;;;4.60;;
64678;SDS011;51094;53.864;27.676;2022-11-27T12:38:59;4.32;;;4.25;;
64678;SDS011;51094;53.864;27.676;2022-11-27T12:44:24;4.78;;;4.68;;
64678;SDS011;51094;53.864;27.676;2022-11-27T12:47:14;4.45;;;4.35;;
64678;SDS011;51094;53.864;27.676;2022-11-27T12:49:52;4.85;;;4.75;;
64678;SDS011;51094;53.864;27.676;2022-11-27T12:52:33;4.82;;;4.72;;
64678;SDS011;51094;53.864;27.676;2022-11-27T12:55:11;5.07;;;4.97;;
64678;SDS011;51094;53.864;27.676;2022-11-27T12:57:43;4.40;;;4.40;;
64678;SDS011;51094;53.864;27.676;2022-11-27T13:00:16;4.75;;;4.65;;
64678;SDS011;51094;53.864;27.676;2022-11-27T13:05:45;4.55;;;4.45;;
64678;SDS011;51094;53.864;27.676;2022-11-27T13:11:22;5.07;;;4.97;;
64678;SDS011;51094;53.864;27.676;2022-11-27T13:13:58;4.50;;;4.40;;
64678;SDS011;51094;53.864;27.676;2022-11-27T13:16:35;4.82;;;4.72;;
64678;SDS011;51094;53.864;27.676;2022-11-27T13:21:53;4.45;;;4.35;;
64678;SDS011;51094;53.864;27.676;2022-11-27T13:24:22;4.32;;;4.22;;
64678;SDS011;51094;53.864;27.676;2022-11-27T13:27:12;4.40;;;4.30;;
64678;SDS011;51094;53.864;27.676;2022-11-27T13:32:20;4.75;;;4.65;;
64678;SDS011;51094;53.864;27.676;2022-11-27T13:34:49;4.00;;;4.00;;
64678;SDS011;51094;53.864;27.676;2022-11-27T13:37:31;4.45;;;4.35;;
64678;SDS011;51094;53.864;27.676;2022-11-27T13:42:40;4.47;;;4.38;;
64678;SDS011;51094;53.864;27.676;2022-11-27T13:45:17;4.22;;;4.22;;
64678;SDS011;51094;53.864;27.676;2022-11-27T13:47:47;4.20;;;4.20;;
64678;SDS011;51094;53.864;27.676;2022-11-27T13:50:17;4.40;;;4.30;;
64678;SDS011;51094;53.864;27.676;2022-11-27T13:55:27;4.57;;;4.47;;
64678;SDS011;51094;53.864;27.676;2022-11-27T13:57:58;4.00;;;4.00;;
64678;SDS011;51094;53.864;27.676;2022-11-27T14:00:37;3.97;;;3.97;;
64678;SDS011;51094;53.864;27.676;2022-11-27T14:03:06;4.18;;;4.18;;
64678;SDS011;51094;53.864;27.676;2022-11-27T14:05:39;4.18;;;4.07;;
64678;SDS011;51094;53.864;27.676;2022-11-27T14:08:23;4.13;;;4.13;;
64678;SDS011;51094;53.864;27.676;2022-11-27T14:11:03;4.50;;;4.40;;
64678;SDS011;51094;53.864;27.676;2022-11-27T14:13:48;4.18;;;4.18;;
64678;SDS011;51094;53.864;27.676;2022-11-27T14:16:20;4.00;;;4.00;;
64678;SDS011;51094;53.864;27.676;2022-11-27T14:18:52;4.40;;;4.40;;
64678;SDS011;51094;53.864;27.676;2022-11-27T14:21:28;4.00;;;4.00;;
64678;SDS011;51094;53.864;27.676;2022-11-27T14:24:25;3.97;;;3.97;;
64678;SDS011;51094;53.864;27.676;2022-11-27T14:26:58;4.20;;;4.18;;
64678;SDS011;51094;53.864;27.676;2022-11-27T14:29:28;4.15;;;4.15;;
64678;SDS011;51094;53.864;27.676;2022-11-27T14:31:56;4.00;;;4.00;;
64678;SDS011;51094;53.864;27.676;2022-11-27T14:34:25;3.70;;;3.70;;
64678;SDS011;51094;53.864;27.676;2022-11-27T14:36:56;3.67;;;3.67;;
64678;SDS011;51094;53.864;27.676;2022-11-27T14:39:26;3.53;;;3.53;;
64678;SDS011;51094;53.864;27.676;2022-11-27T14:41:55;3.63;;;3.63;;
64678;SDS011;51094;53.864;27.676;2022-11-27T14:44:22;3.60;;;3.60;;
64678;SDS011;51094;53.864;27.676;2022-11-27T14:46:49;3.80;;;3.80;;
64678;SDS011;51094;53.864;27.676;2022-11-27T14:49:18;3.83;;;3.83;;
64678;SDS011;51094;53.864;27.676;2022-11-27T14:51:45;3.90;;;3.80;;
64678;SDS011;51094;53.864;27.676;2022-11-27T14:54:27;3.70;;;3.70;;
64678;SDS011;51094;53.864;27.676;2022-11-27T14:56:57;4.30;;;4.30;;
64678;SDS011;51094;53.864;27.676;2022-11-27T14:59:25;4.10;;;4.10;;
64678;SDS011;51094;53.864;27.676;2022-11-27T15:04:41;3.97;;;3.97;;
64678;SDS011;51094;53.864;27.676;2022-11-27T15:07:12;4.00;;;3.90;;
64678;SDS011;51094;53.864;27.676;2022-11-27T15:09:44;4.10;;;4.00;;
64678;SDS011;51094;53.864;27.676;2022-11-27T15:14:43;3.55;;;3.55;;
64678;SDS011;51094;53.864;27.676;2022-11-27T15:17:14;3.70;;;3.70;;
64678;SDS011;51094;53.864;27.676;2022-11-27T15:19:42;3.60;;;3.60;;
64678;SDS011;51094;53.864;27.676;2022-11-27T15:22:14;3.10;;;3.10;;
64678;SDS011;51094;53.864;27.676;2022-11-27T15:24:42;3.28;;;3.28;;
64678;SDS011;51094;53.864;27.676;2022-11-27T15:27:17;3.10;;;3.10;;
64678;SDS011;51094;53.864;27.676;2022-11-27T15:32:16;3.70;;;3.70;;
64678;SDS011;51094;53.864;27.676;2022-11-27T15:34:49;3.63;;;3.63;;
64678;SDS011;51094;53.864;27.676;2022-11-27T15:39:53;3.28;;;3.28;;
64678;SDS011;51094;53.864;27.676;2022-11-27T15:42:21;3.40;;;3.40;;
64678;SDS011;51094;53.864;27.676;2022-11-27T15:44:52;3.30;;;3.30;;
64678;SDS011;51094;53.864;27.676;2022-11-27T15:47:25;3.38;;;3.38;;
64678;SDS011;51094;53.864;27.676;2022-11-27T15:49:57;3.05;;;3.05;;
64678;SDS011;51094;53.864;27.676;2022-11-27T15:52:26;3.20;;;3.20;;
64678;SDS011;51094;53.864;27.676;2022-11-27T15:54:54;3.20;;;3.20;;
64678;SDS011;51094;53.864;27.676;2022-11-27T15:57:21;3.50;;;3.50;;
64678;SDS011;51094;53.864;27.676;2022-11-27T15:59:49;3.72;;;3.72;;
64678;SDS011;51094;53.864;27.676;2022-11-27T16:02:16;3.70;;;3.70;;
64678;SDS011;51094;53.864;27.676;2022-11-27T16:04:44;3.88;;;3.88;;
64678;SDS011;51094;53.864;27.676;2022-11-27T16:07:10;3.83;;;3.83;;
64678;SDS011;51094;53.864;27.676;2022-11-27T16:09:37;3.60;;;3.60;;
64678;SDS011;51094;53.864;27.676;2022-11-27T16:12:05;3.80;;;3.80;;
64678;SDS011;51094;53.864;27.676;2022-11-27T16:14:32;3.65;;;3.65;;
64678;SDS011;51094;53.864;27.676;2022-11-27T16:16:58;3.85;;;3.85;;
64678;SDS011;51094;53.864;27.676;2022-11-27T16:19:26;3.97;;;3.88;;
64678;SDS011;51094;53.864;27.676;2022-11-27T16:21:53;3.90;;;3.90;;
64678;SDS011;51094;53.864;27.676;2022-11-27T16:24:20;3.70;;;3.70;;
64678;SDS011;51094;53.864;27.676;2022-11-27T16:26:47;4.32;;;4.22;;
64678;SDS011;51094;53.864;27.676;2022-11-27T16:29:13;4.00;;;4.00;;
64678;SDS011;51094;53.864;27.676;2022-11-27T16:31:40;4.05;;;3.95;;
64678;SDS011;51094;53.864;27.676;2022-11-27T16:34:07;3.95;;;3.90;;
64678;SDS011;51094;53.864;27.676;2022-11-27T16:36:39;4.57;;;4.47;;
64678;SDS011;51094;53.864;27.676;2022-11-27T16:39:06;4.32;;;4.22;;
64678;SDS011;51094;53.864;27.676;2022-11-27T16:41:34;4.30;;;4.20;;
64678;SDS011;51094;53.864;27.676;2022-11-27T16:44:02;4.32;;;4.30;;
64678;SDS011;51094;53.864;27.676;2022-11-27T16:46:36;4.25;;;4.15;;
64678;SDS011;51094;53.864;27.676;2022-11-27T16:49:04;4.07;;;3.97;;
64678;SDS011;51094;53.864;27.676;2022-11-27T16:51:32;4.28;;;4.18;;